Time;durP1;ratioP1;P1;durP2;ratioP2;P2;SDS_P1;SDS_P2;PMS_P1;PMS_P2;Temp;Humidity;BMP_temperature;BMP_pressure;BME280_temperature;BME280_humidity;BME280_pressure;Samples;Min_cycle;Max_cycle;Signal;HPM_P1;HPM_P2
2021/03/25 00:05:44;;;;;;;36.88;19.40;;;7.60;99.90;;;;;;6196568;23;20035;-81
2021/03/25 00:08:16;;;;;;;40.75;18.42;;;7.40;99.90;;;;;;6135194;23;20020;-82
2021/03/25 00:16:23;;;;;;;33.63;17.85;;;7.30;99.90;;;;;;6188717;23;20009;-81
2021/03/25 00:18:51;;;;;;;37.30;17.75;;;7.10;99.90;;;;;;6189167;23;20009;-81
2021/03/25 00:24:30;;;;;;;31.95;16.92;;;7.30;99.90;;;;;;6181229;23;20014;-81
2021/03/25 00:32:50;;;;;;;38.80;17.75;;;7.40;99.90;;;;;;6166335;23;20016;-81
2021/03/25 00:38:14;;;;;;;38.08;16.98;;;7.50;99.90;;;;;;6181044;23;20034;-83
2021/03/25 00:40:45;;;;;;;34.75;15.60;;;7.40;99.90;;;;;;6160297;23;20057;-83
2021/03/25 00:43:13;;;;;;;37.00;15.82;;;7.50;99.90;;;;;;6160080;23;20072;-85
2021/03/25 00:45:46;;;;;;;34.92;16.10;;;7.50;99.90;;;;;;6160073;23;20051;-83
2021/03/25 00:48:19;;;;;;;39.15;16.05;;;7.40;99.90;;;;;;6179667;23;20069;-85
2021/03/25 00:50:51;;;;;;;33.83;15.73;;;7.40;99.90;;;;;;6130691;23;20074;-83
2021/03/25 00:53:21;;;;;;;34.83;16.20;;;7.50;99.90;;;;;;6180047;23;20101;-84
2021/03/25 00:55:54;;;;;;;35.03;16.83;;;7.40;99.90;;;;;;6154643;23;20065;-84
2021/03/25 00:58:23;;;;;;;35.90;17.00;;;7.50;99.90;;;;;;6179331;23;20074;-84
2021/03/25 01:00:52;;;;;;;35.92;14.98;;;7.40;99.90;;;;;;6154970;23;20105;-84
2021/03/25 01:03:24;;;;;;;41.10;15.85;;;7.40;99.90;;;;;;6154511;23;20050;-84
2021/03/25 01:05:53;;;;;;;37.55;15.63;;;7.40;99.90;;;;;;6155158;23;20054;-83
2021/03/25 01:08:22;;;;;;;37.15;16.08;;;7.40;99.90;;;;;;6155023;23;20086;-84
2021/03/25 01:10:54;;;;;;;39.47;16.33;;;7.40;99.90;;;;;;6154180;23;20026;-83
2021/03/25 01:13:30;;;;;;;35.67;14.88;;;7.40;99.90;;;;;;6154185;23;20045;-84
2021/03/25 01:16:03;;;;;;;30.35;14.95;;;7.40;99.90;;;;;;6154803;23;20046;-84
2021/03/25 01:18:33;;;;;;;36.65;15.23;;;7.40;99.90;;;;;;6129823;23;20049;-83
2021/03/25 01:21:02;;;;;;;34.67;15.70;;;7.30;99.90;;;;;;6154463;23;20008;-83
2021/03/25 01:23:35;;;;;;;37.88;15.73;;;7.30;99.90;;;;;;6130525;23;20050;-82
2021/03/25 01:26:04;;;;;;;32.75;16.50;;;7.30;99.90;;;;;;6154110;23;20008;-84
2021/03/25 01:28:35;;;;;;;36.55;14.75;;;7.30;99.90;;;;;;6154408;23;20065;-83
2021/03/25 01:31:03;;;;;;;31.98;13.80;;;7.20;99.90;;;;;;6130008;23;20065;-83
2021/03/25 01:33:34;;;;;;;31.85;15.20;;;7.20;99.90;;;;;;6155276;23;20104;-83
2021/03/25 01:36:08;;;;;;;32.88;16.02;;;7.20;99.90;;;;;;6153956;23;20049;-82
2021/03/25 01:38:38;;;;;;;39.80;16.35;;;7.10;99.90;;;;;;6129572;23;20073;-83
2021/03/25 01:41:08;;;;;;;33.60;15.52;;;7.00;99.90;;;;;;6129763;23;20073;-82
2021/03/25 01:43:39;;;;;;;28.08;14.25;;;7.10;99.90;;;;;;6153976;23;20069;-83
2021/03/25 01:46:17;;;;;;;32.47;14.98;;;7.00;99.90;;;;;;6174553;23;20031;-82
2021/03/25 01:48:49;;;;;;;32.75;16.50;;;7.10;99.90;;;;;;6188603;23;20045;-82
2021/03/25 01:51:37;;;;;;;36.95;14.70;;;7.00;99.90;;;;;;6164430;23;20061;-84
2021/03/25 01:57:16;;;;;;;34.70;13.85;;;7.00;99.90;;;;;;6174973;23;20004;-82
2021/03/25 02:03:04;;;;;;;29.40;14.68;;;7.00;99.90;;;;;;6153674;23;20073;-83
2021/03/25 02:05:41;;;;;;;;;;;7.00;99.90;;;;;;6128448;23;20086;-83
2021/03/25 02:08:23;;;;;;;40.08;15.88;;;7.00;99.90;;;;;;6104824;23;19940;-83
2021/03/25 02:11:05;;;;;;;32.38;14.40;;;6.90;99.90;;;;;;6105358;23;20081;-84
2021/03/25 02:13:46;;;;;;;35.70;14.57;;;6.90;99.90;;;;;;6153432;23;20046;-83
2021/03/25 02:16:19;;;;;;;40.15;14.98;;;6.90;99.90;;;;;;6129839;23;20049;-85
2021/03/25 02:19:24;;;;;;;35.30;14.98;;;6.90;99.90;;;;;;6216228;23;20010;-84
2021/03/25 02:28:05;;;;;;;31.98;14.98;;;6.70;99.90;;;;;;6186768;23;20025;-82
2021/03/25 02:30:51;;;;;;;28.02;14.15;;;6.60;99.90;;;;;;6180180;23;20005;-83
2021/03/25 02:33:22;;;;;;;28.50;14.02;;;6.40;99.90;;;;;;6183884;23;20085;-82
2021/03/25 02:36:05;;;;;;;36.15;15.90;;;6.20;99.90;;;;;;6183199;23;20074;-82
2021/03/25 02:38:36;;;;;;;36.58;15.73;;;6.30;99.90;;;;;;6183389;23;20049;-83
2021/03/25 02:41:13;;;;;;;32.88;15.10;;;6.40;99.90;;;;;;6158869;23;20077;-83
2021/03/25 02:46:36;;;;;;;34.42;15.25;;;6.70;99.90;;;;;;6158989;23;20016;-81
2021/03/25 02:49:45;;;;;;;33.78;14.65;;;6.60;99.90;;;;;;6190104;23;20076;-82
2021/03/25 02:52:20;;;;;;;35.47;14.90;;;6.70;99.90;;;;;;6163759;23;20065;-82
2021/03/25 03:00:58;;;;;;;33.97;15.15;;;6.30;99.90;;;;;;6182055;23;20042;-82
2021/03/25 03:03:32;;;;;;;33.13;14.60;;;6.30;99.90;;;;;;6126746;23;20058;-81
2021/03/25 03:06:12;;;;;;;31.73;14.70;;;6.40;99.90;;;;;;6154562;23;20083;-82
2021/03/25 03:08:49;;;;;;;38.40;16.15;;;6.40;99.90;;;;;;6155197;23;20085;-82
2021/03/25 03:14:07;;;;;;;36.22;15.50;;;6.50;99.90;;;;;;6179816;23;20039;-82
2021/03/25 03:31:43;;;;;;;32.55;14.20;;;6.50;99.90;;;;;;6189228;22;20022;-82
2021/03/25 03:37:26;;;;;;;27.65;14.75;;;6.50;99.90;;;;;;6184643;23;20080;-84
2021/03/25 03:40:02;;;;;;;33.63;14.93;;;6.40;99.90;;;;;;6160858;23;20057;-84
2021/03/25 03:42:44;;;;;;;41.53;17.88;;;6.40;99.90;;;;;;6160568;23;20081;-85
2021/03/25 03:50:57;;;;;;;28.92;14.40;;;6.30;99.90;;;;;;6190052;23;20017;-84
2021/03/25 03:53:29;;;;;;;39.47;15.23;;;6.40;99.90;;;;;;6189724;23;20052;-84
2021/03/25 03:56:11;;;;;;;36.92;14.93;;;6.40;99.90;;;;;;6190019;23;20068;-84
2021/03/25 03:58:50;;;;;;;31.85;14.60;;;6.40;99.90;;;;;;6189917;23;20060;-82
2021/03/25 04:01:29;;;;;;;31.75;15.35;;;6.20;99.90;;;;;;6189953;23;20056;-84
2021/03/25 04:04:05;;;;;;;30.25;14.45;;;6.20;99.90;;;;;;6213722;23;20068;-83
2021/03/25 04:09:43;;;;;;;40.47;15.02;;;6.10;99.90;;;;;;6214262;23;20060;-82
2021/03/25 04:12:28;;;;;;;29.95;14.57;;;6.00;99.90;;;;;;6190141;23;20065;-83
2021/03/25 04:15:04;;;;;;;35.72;14.60;;;6.10;99.90;;;;;;6162944;23;20053;-84
2021/03/25 04:17:47;;;;;;;30.25;14.18;;;6.00;99.90;;;;;;6189248;23;20053;-84
2021/03/25 04:20:36;;;;;;;33.38;14.85;;;6.00;99.90;;;;;;6168928;23;20073;-84
2021/03/25 04:23:23;;;;;;;35.47;15.18;;;6.00;99.90;;;;;;6190012;23;20053;-84
2021/03/25 04:25:59;;;;;;;38.55;15.25;;;6.00;99.90;;;;;;6190215;23;20052;-83
2021/03/25 04:28:35;;;;;;;35.38;14.43;;;6.10;99.90;;;;;;6165130;23;20076;-84
2021/03/25 04:31:08;;;;;;;42.70;16.15;;;6.00;99.90;;;;;;6214537;23;20077;-83
2021/03/25 04:39:31;;;;;;;32.83;14.85;;;6.00;99.90;;;;;;6185369;23;20009;-82
2021/03/25 04:42:02;;;;;;;33.42;13.82;;;5.90;99.90;;;;;;6181763;23;20040;-82
2021/03/25 04:44:37;;;;;;;38.20;15.50;;;5.90;99.90;;;;;;6183815;23;20061;-83
2021/03/25 04:47:15;;;;;;;35.83;14.98;;;5.90;99.90;;;;;;6158960;23;20073;-83
2021/03/25 04:49:48;;;;;;;40.45;15.52;;;5.90;99.90;;;;;;6156101;23;20045;-84
2021/03/25 04:55:17;;;;;;;34.33;15.18;;;5.90;99.90;;;;;;6173020;23;20009;-83
2021/03/25 04:57:53;;;;;;;30.90;14.80;;;5.80;99.90;;;;;;6182524;23;20305;-84
2021/03/25 05:00:26;;;;;;;32.97;14.88;;;5.80;99.90;;;;;;6184436;23;20057;-83
2021/03/25 05:02:56;;;;;;;33.33;14.27;;;5.80;99.90;;;;;;6183551;23;20049;-83
2021/03/25 05:05:28;;;;;;;36.13;15.55;;;5.80;99.90;;;;;;6183486;23;20053;-83
2021/03/25 05:08:05;;;;;;;33.95;13.82;;;5.70;99.90;;;;;;6182971;23;20006;-83
2021/03/25 05:10:40;;;;;;;34.10;15.77;;;5.70;99.90;;;;;;6183837;23;20072;-83
2021/03/25 05:13:22;;;;;;;39.95;15.27;;;5.70;99.90;;;;;;6156288;23;20053;-83
2021/03/25 05:16:13;;;;;;;35.28;14.90;;;5.60;99.90;;;;;;6158857;23;20057;-83
2021/03/25 05:18:52;;;;;;;34.97;15.13;;;5.70;99.90;;;;;;6159854;23;20057;-83
2021/03/25 05:21:33;;;;;;;35.05;15.90;;;5.80;99.90;;;;;;6209272;23;20049;-82
2021/03/25 05:24:10;;;;;;;41.15;14.57;;;5.80;99.90;;;;;;6177915;23;20024;-83
2021/03/25 05:26:42;;;;;;;33.45;14.73;;;5.80;99.90;;;;;;6178212;23;20031;-83
2021/03/25 05:29:15;;;;;;;35.40;14.20;;;5.80;99.90;;;;;;6180142;23;20005;-82
2021/03/25 05:31:46;;;;;;;35.13;13.30;;;5.80;99.90;;;;;;6176937;23;20032;-83
2021/03/25 05:34:17;;;;;;;41.28;14.27;;;5.80;99.90;;;;;;6179396;23;20018;-83
2021/03/25 05:36:51;;;;;;;41.10;15.20;;;5.70;99.90;;;;;;6178393;23;20028;-84
2021/03/25 05:39:20;;;;;;;30.85;14.05;;;5.80;99.90;;;;;;6177275;23;20018;-82
2021/03/25 05:41:55;;;;;;;36.28;14.27;;;5.80;99.90;;;;;;6178266;23;20001;-81
2021/03/25 05:45:15;;;;;;;33.30;13.98;;;5.70;99.90;;;;;;6153427;23;20005;-81
2021/03/25 05:48:08;;;;;;;34.00;12.88;;;5.80;99.90;;;;;;6177209;23;20017;-82
2021/03/25 05:50:49;;;;;;;37.97;14.98;;;5.80;99.90;;;;;;6177577;23;20021;-83
2021/03/25 05:53:27;;;;;;;36.58;13.07;;;5.70;99.90;;;;;;6178311;23;20027;-82
2021/03/25 05:56:06;;;;;;;33.35;12.82;;;5.80;99.90;;;;;;6184023;23;20043;-82
2021/03/25 05:58:38;;;;;;;;;;;5.80;99.90;;;;;;6161625;23;19997;-83
2021/03/25 06:01:39;;;;;;;34.70;14.13;;;5.80;99.90;;;;;;6186932;23;19972;-82
2021/03/25 06:04:13;;;;;;;32.20;13.98;;;5.80;99.90;;;;;;6135650;23;20077;-84
2021/03/25 06:10:59;;;;;;;28.63;13.75;;;5.90;99.90;;;;;;6164435;23;20328;-83
2021/03/25 06:13:43;;;;;;;36.58;14.30;;;6.00;99.90;;;;;;6097300;23;20018;-84
2021/03/25 06:16:55;;;;;;;37.67;14.80;;;6.20;99.90;;;;;;6157832;23;20073;-84
2021/03/25 06:19:51;;;;;;;38.15;15.02;;;6.20;99.90;;;;;;6163841;23;20065;-81
2021/03/25 06:22:26;;;;;;;40.20;15.50;;;6.30;99.90;;;;;;6213209;23;20064;-82
2021/03/25 06:25:24;;;;;;;32.38;13.85;;;6.40;99.90;;;;;;6188546;23;20053;-84
2021/03/25 06:28:33;;;;;;;38.83;15.50;;;6.40;99.90;;;;;;6212674;23;20065;-82
2021/03/25 06:31:28;;;;;;;40.47;14.70;;;6.50;99.90;;;;;;6153857;23;20008;-83
2021/03/25 06:34:06;;;;;;;34.20;15.20;;;6.50;99.90;;;;;;6186675;23;20056;-83
2021/03/25 06:36:45;;;;;;;35.97;14.32;;;6.50;99.90;;;;;;6182644;23;20031;-82
2021/03/25 06:39:33;;;;;;;39.33;15.38;;;6.50;99.90;;;;;;6186111;23;20054;-83
2021/03/25 06:42:19;;;;;;;38.80;15.90;;;6.70;99.90;;;;;;6208677;23;20065;-81
2021/03/25 06:44:52;;;;;;;37.38;14.73;;;6.70;99.90;;;;;;6209368;23;20025;-84
2021/03/25 06:47:43;;;;;;;35.58;14.27;;;6.70;99.90;;;;;;6184014;23;20031;-84
2021/03/25 06:50:14;;;;;;;;;;;6.80;99.90;;;;;;6184261;23;20021;-83
2021/03/25 06:52:46;;;;;;;31.95;13.85;;;6.70;99.90;;;;;;6185140;23;19927;-83
2021/03/25 06:55:19;;;;;;;33.83;14.02;;;6.60;99.90;;;;;;6209770;23;20063;-83
2021/03/25 06:57:56;;;;;;;39.17;14.25;;;6.70;99.90;;;;;;6181704;23;20021;-84
2021/03/25 07:00:31;;;;;;;36.28;14.23;;;6.80;99.90;;;;;;6184209;23;20005;-84
2021/03/25 07:03:00;;;;;;;41.13;15.25;;;6.90;99.90;;;;;;6184841;23;20027;-83
2021/03/25 07:05:31;;;;;;;30.40;13.13;;;7.00;99.90;;;;;;6207035;23;20282;-84
2021/03/25 07:08:07;;;;;;;29.33;12.95;;;7.00;99.90;;;;;;6182209;23;20021;-82
2021/03/25 07:10:38;;;;;;;28.23;12.48;;;7.00;99.90;;;;;;6154879;23;20035;-83
2021/03/25 07:13:45;;;;;;;;;;;;;;;;;;;;;
2021/03/25 07:16:17;;;;;;;33.40;13.38;;;7.00;99.90;;;;;;6185185;23;20027;-84
2021/03/25 07:18:57;;;;;;;40.67;14.07;;;7.10;99.90;;;;;;6184953;23;20027;-83
2021/03/25 07:21:38;;;;;;;38.60;15.15;;;7.20;99.90;;;;;;6184570;23;20035;-81
2021/03/25 07:24:12;;;;;;;37.05;14.80;;;7.30;99.90;;;;;;6185223;23;20076;-83
2021/03/25 07:26:44;;;;;;;35.28;14.23;;;7.40;99.90;;;;;;6163031;23;20076;-83
2021/03/25 07:29:29;;;;;;;31.85;13.50;;;7.60;99.90;;;;;;6164030;23;20064;-84
2021/03/25 07:32:30;;;;;;;33.35;14.50;;;7.60;99.90;;;;;;6187200;23;20017;-84
2021/03/25 07:35:13;;;;;;;40.30;13.98;;;7.70;99.90;;;;;;6186856;23;20065;-83
2021/03/25 07:37:48;;;;;;;37.42;14.27;;;7.70;99.90;;;;;;6186511;23;20096;-83
2021/03/25 07:40:33;;;;;;;36.78;14.40;;;7.90;99.90;;;;;;6186783;23;20081;-83
2021/03/25 07:43:21;;;;;;;34.75;14.60;;;8.00;99.90;;;;;;6186262;23;20072;-82
2021/03/25 07:46:06;;;;;;;28.27;13.63;;;8.10;99.90;;;;;;6160502;23;20021;-83
2021/03/25 07:48:38;;;;;;;28.45;12.18;;;8.10;99.90;;;;;;6157883;23;20036;-83
2021/03/25 07:51:23;;;;;;;32.35;14.82;;;8.20;99.90;;;;;;6184500;23;20031;-82
2021/03/25 07:54:09;;;;;;;28.95;11.77;;;8.20;99.90;;;;;;6186022;23;20036;-82
2021/03/25 07:56:59;;;;;;;31.10;13.75;;;8.20;99.90;;;;;;6185702;23;20024;-82
2021/03/25 07:59:50;;;;;;;30.45;13.27;;;8.30;99.90;;;;;;6183085;23;20007;-84
2021/03/25 08:03:00;;;;;;;;;;;;;;;;;;;;;
2021/03/25 08:05:50;;;;;;;27.40;12.80;;;8.60;99.90;;;;;;6162247;23;20039;-84
2021/03/25 08:08:39;;;;;;;31.38;13.48;;;8.60;99.90;;;;;;6158987;23;20017;-84
2021/03/25 08:11:16;;;;;;;29.65;11.65;;;8.80;99.90;;;;;;6185362;23;20027;-84
2021/03/25 08:13:51;;;;;;;33.97;13.07;;;8.90;99.90;;;;;;6188178;23;20012;-84
2021/03/25 08:16:21;;;;;;;30.23;11.93;;;9.00;99.90;;;;;;6211723;23;20072;-84
2021/03/25 08:19:20;;;;;;;31.45;12.82;;;9.10;99.90;;;;;;6187150;23;20027;-84
2021/03/25 08:48:28;;;;;;;32.35;13.48;;;10.20;94.80;;;;;;6160207;23;20009;-83
2021/03/25 08:51:08;;;;;;;29.75;13.05;;;10.40;94.70;;;;;;6173205;23;20013;-83
2021/03/25 09:09:00;;;;;;;29.15;13.05;;;11.10;91.80;;;;;;6187891;23;20030;-79
2021/03/25 09:11:29;;;;;;;31.40;12.98;;;11.20;91.20;;;;;;6189666;23;20052;-84
2021/03/25 09:22:49;;;;;;;32.92;13.27;;;11.90;87.40;;;;;;6204077;23;20219;-84
2021/03/25 09:28:19;;;;;;;31.10;13.35;;;11.90;88.60;;;;;;6204848;23;20027;-86
2021/03/25 09:31:14;;;;;;;34.78;14.60;;;12.20;87.00;;;;;;6176818;23;20320;-87
2021/03/25 09:33:51;;;;;;;36.22;14.65;;;12.50;85.40;;;;;;6165106;23;20028;-88
2021/03/25 09:39:33;;;;;;;38.97;15.30;;;12.70;82.80;;;;;;6190951;23;20188;-79
2021/03/25 09:42:06;;;;;;;31.73;13.95;;;12.60;83.20;;;;;;6170638;23;20006;-82
2021/03/25 09:44:39;;;;;;;34.55;13.75;;;12.50;84.00;;;;;;6159871;23;20032;-83
2021/03/25 09:47:36;;;;;;;32.42;15.20;;;12.80;83.20;;;;;;6100485;23;20054;-83
2021/03/25 09:53:18;;;;;;;32.53;14.98;;;13.10;81.60;;;;;;6179024;23;20011;-84
2021/03/25 10:19:43;;;;;;;34.97;15.18;;;14.60;72.70;;;;;;6185038;23;20231;-87
2021/03/25 10:22:20;;;;;;;41.03;16.52;;;15.70;69.10;;;;;;6163183;23;20032;-91
2021/03/25 10:24:56;;;;;;;41.58;17.27;;;16.70;65.30;;;;;;6162067;23;20017;-90
2021/03/25 10:27:41;;;;;;;34.70;15.07;;;17.40;61.20;;;;;;6171164;23;20021;-88
2021/03/25 10:30:29;;;;;;;37.10;14.90;;;17.30;60.90;;;;;;6195032;23;20027;-86
2021/03/25 10:35:56;;;;;;;36.10;15.57;;;17.00;60.40;;;;;;6187375;23;20039;-89
2021/03/25 10:38:29;;;;;;;39.25;17.38;;;18.40;57.50;;;;;;6163328;23;20039;-88
2021/03/25 10:40:59;;;;;;;37.95;16.65;;;19.10;53.80;;;;;;6162089;23;20027;-83
2021/03/25 10:43:30;;;;;;;31.45;15.73;;;19.40;53.00;;;;;;6161128;23;20298;-87
2021/03/25 10:45:59;;;;;;;36.95;15.48;;;19.80;52.00;;;;;;6161093;23;20032;-85
2021/03/25 10:48:33;;;;;;;;;;;20.50;49.50;;;;;;6170452;23;20027;-85
2021/03/25 10:51:07;;;;;;;34.03;15.75;;;20.60;48.60;;;;;;6145314;23;19920;-85
2021/03/25 10:53:40;;;;;;;33.35;16.83;;;20.90;48.90;;;;;;6175972;23;20024;-89
2021/03/25 10:56:15;;;;;;;31.00;16.15;;;20.00;49.00;;;;;;6171554;23;20477;-87
2021/03/25 10:58:53;;;;;;;38.78;17.75;;;20.00;50.30;;;;;;6180365;23;20017;-86
2021/03/25 11:01:24;;;;;;;43.55;18.20;;;20.40;49.00;;;;;;6161913;23;20024;-83
2021/03/25 11:03:53;;;;;;;34.72;16.85;;;21.00;48.30;;;;;;6161529;23;20024;-84
2021/03/25 11:06:25;;;;;;;33.08;15.60;;;22.00;46.40;;;;;;6160532;23;20023;-84
2021/03/25 11:09:03;;;;;;;36.28;16.58;;;22.90;45.20;;;;;;6136646;23;20025;-86
2021/03/25 11:11:35;;;;;;;36.72;17.02;;;23.00;43.60;;;;;;6185753;23;20024;-87
2021/03/25 11:14:06;;;;;;;36.58;16.70;;;22.40;43.80;;;;;;6162364;23;20031;-90
2021/03/25 11:16:35;;;;;;;36.38;17.73;;;20.90;46.30;;;;;;6163045;23;20017;-92
2021/03/25 11:19:07;;;;;;;37.05;17.48;;;20.60;47.90;;;;;;6162092;23;20021;-88
2021/03/25 11:21:37;;;;;;;31.42;16.65;;;21.00;47.50;;;;;;6162255;23;20017;-89
2021/03/25 11:24:16;;;;;;;34.13;15.52;;;21.20;47.20;;;;;;6137404;23;20021;-86
2021/03/25 11:26:47;;;;;;;37.85;18.83;;;21.80;46.10;;;;;;6136218;23;20020;-87
2021/03/25 11:29:27;;;;;;;39.55;16.35;;;21.70;45.70;;;;;;6164575;23;20048;-84
2021/03/25 11:32:11;;;;;;;33.30;16.05;;;22.50;45.00;;;;;;6161647;23;20020;-83
2021/03/25 11:34:41;;;;;;;34.00;17.30;;;23.50;43.60;;;;;;6186294;23;20036;-83
2021/03/25 11:37:26;;;;;;;36.90;17.33;;;24.80;40.80;;;;;;6161807;23;20031;-83
2021/03/25 11:39:59;;;;;;;33.72;16.63;;;25.60;39.90;;;;;;6161285;23;20041;-84
2021/03/25 11:42:30;;;;;;;35.05;16.13;;;24.20;40.30;;;;;;6161821;23;20017;-84
2021/03/25 11:44:59;;;;;;;38.08;16.70;;;24.40;41.10;;;;;;6187810;23;20028;-85
2021/03/25 11:47:46;;;;;;;29.60;16.73;;;25.20;40.30;;;;;;6162325;23;20036;-83
2021/03/25 11:50:32;;;;;;;30.20;17.92;;;25.40;39.20;;;;;;6161902;23;20301;-83
2021/03/25 11:53:03;;;;;;;30.33;16.45;;;25.80;38.50;;;;;;6187722;23;20017;-83
2021/03/25 11:55:36;;;;;;;33.97;18.55;;;25.90;38.40;;;;;;6161843;23;20025;-83
2021/03/25 11:58:10;;;;;;;34.25;18.75;;;27.00;37.20;;;;;;6161891;23;20029;-83
2021/03/25 12:00:54;;;;;;;38.45;18.83;;;26.60;36.70;;;;;;6162214;23;20035;-86
2021/03/25 12:03:26;;;;;;;34.92;16.80;;;24.40;38.50;;;;;;6161263;23;20017;-84
2021/03/25 12:05:55;;;;;;;34.60;17.73;;;24.90;38.80;;;;;;6161636;23;20025;-85
2021/03/25 12:08:30;;;;;;;37.72;19.30;;;25.00;38.70;;;;;;6186544;23;20073;-85
2021/03/25 12:11:01;;;;;;;35.38;18.85;;;25.20;38.20;;;;;;6161400;23;20021;-85
2021/03/25 12:13:31;;;;;;;39.42;18.00;;;24.30;39.10;;;;;;6161569;23;20021;-88
2021/03/25 12:15:59;;;;;;;34.25;18.10;;;22.40;41.80;;;;;;6186577;23;20027;-84
2021/03/25 12:18:37;;;;;;;37.15;18.75;;;23.40;41.30;;;;;;6187387;23;20318;-85
2021/03/25 12:21:08;;;;;;;36.90;18.23;;;23.40;40.60;;;;;;6162297;23;20028;-86
2021/03/25 12:23:38;;;;;;;30.75;15.98;;;24.00;40.70;;;;;;6161640;23;20024;-83
2021/03/25 12:26:10;;;;;;;32.67;16.33;;;25.20;39.30;;;;;;6161935;23;20436;-84
2021/03/25 12:28:40;;;;;;;34.30;17.25;;;26.70;38.00;;;;;;6162347;23;20021;-83
2021/03/25 12:31:15;;;;;;;34.00;16.77;;;27.90;34.70;;;;;;6161037;23;20021;-83
2021/03/25 12:33:43;;;;;;;34.63;17.88;;;28.10;34.30;;;;;;6161287;23;20013;-84
2021/03/25 12:36:10;;;;;;;29.87;16.20;;;28.40;33.00;;;;;;6161688;23;20420;-84
2021/03/25 12:38:40;;;;;;;26.00;13.10;;;27.50;33.50;;;;;;6137479;23;20265;-84
2021/03/25 12:41:08;;;;;;;26.38;13.95;;;27.60;33.70;;;;;;6162088;23;20040;-82
2021/03/25 12:43:36;;;;;;;40.30;15.93;;;28.30;33.50;;;;;;6160993;23;20017;-83
2021/03/25 12:46:06;;;;;;;28.73;16.13;;;29.00;32.50;;;;;;6171143;23;20028;-86
2021/03/25 12:48:36;;;;;;;29.02;15.63;;;29.20;32.90;;;;;;6161348;23;20017;-84
2021/03/25 12:51:12;;;;;;;19.58;11.15;;;29.80;32.20;;;;;;6162047;23;20027;-84
2021/03/25 12:53:42;;;;;;;29.05;16.77;;;30.40;31.70;;;;;;6136501;23;20032;-83
2021/03/25 12:56:15;;;;;;;28.70;16.85;;;30.10;30.20;;;;;;6161594;23;20399;-82
2021/03/25 12:58:43;;;;;;;33.45;18.20;;;27.90;31.40;;;;;;6162379;23;20320;-89
2021/03/25 13:01:13;;;;;;;32.45;18.08;;;24.30;35.70;;;;;;6161675;23;20028;-85
2021/03/25 13:03:45;;;;;;;31.98;16.15;;;23.80;37.70;;;;;;6171590;23;20017;-85
2021/03/25 13:06:14;;;;;;;31.30;16.77;;;24.80;36.10;;;;;;6161077;23;20017;-84
2021/03/25 13:08:42;;;;;;;37.05;17.00;;;25.70;34.90;;;;;;6186108;23;20020;-83
2021/03/25 13:11:14;;;;;;;30.60;16.13;;;27.00;33.60;;;;;;6161982;23;20025;-84
2021/03/25 13:13:44;;;;;;;36.85;17.38;;;27.80;33.00;;;;;;6162231;23;20021;-84
2021/03/25 13:16:14;;;;;;;29.95;16.85;;;28.50;32.20;;;;;;6161742;23;20017;-84
2021/03/25 13:18:42;;;;;;;30.98;16.63;;;29.00;31.70;;;;;;6161869;23;20321;-83
2021/03/25 13:21:10;;;;;;;;;;;29.40;31.00;;;;;;6162090;23;20024;-82
2021/03/25 13:23:38;;;;;;;34.22;17.42;;;28.60;31.60;;;;;;6161245;23;19927;-84
2021/03/25 13:26:08;;;;;;;32.53;16.05;;;27.60;32.10;;;;;;6161331;23;20025;-83
2021/03/25 13:28:39;;;;;;;30.98;16.70;;;26.60;32.00;;;;;;6161867;23;20032;-86
2021/03/25 13:31:08;;;;;;;38.08;17.08;;;24.20;35.30;;;;;;6161850;23;20032;-87
2021/03/25 13:33:39;;;;;;;29.60;16.30;;;22.80;38.00;;;;;;6162304;23;20024;-89
2021/03/25 13:36:07;;;;;;;33.35;16.60;;;22.70;38.70;;;;;;6161047;23;20017;-86
2021/03/25 13:38:35;;;;;;;33.67;16.03;;;22.80;38.60;;;;;;6160538;23;20021;-88
2021/03/25 13:41:02;;;;;;;43.28;17.08;;;23.10;38.10;;;;;;6159946;23;20265;-85
2021/03/25 13:43:32;;;;;;;35.83;15.00;;;23.00;38.80;;;;;;6160398;23;20089;-84
2021/03/25 13:46:00;;;;;;;34.28;16.23;;;23.70;38.30;;;;;;6160494;23;20028;-85
2021/03/25 13:48:28;;;;;;;37.95;17.02;;;25.00;36.20;;;;;;6161457;23;20021;-87
2021/03/25 13:50:59;;;;;;;28.92;15.07;;;23.80;36.70;;;;;;6136574;23;20021;-84
2021/03/25 13:53:27;;;;;;;28.58;14.25;;;24.40;36.90;;;;;;6161316;23;20017;-85
2021/03/25 13:55:57;;;;;;;27.58;12.05;;;25.50;35.80;;;;;;6186176;23;20048;-85
2021/03/25 13:58:25;;;;;;;34.08;16.60;;;26.70;34.60;;;;;;6160521;23;20728;-84
2021/03/25 14:00:53;;;;;;;34.42;15.80;;;27.80;33.00;;;;;;6162129;23;20020;-83
2021/03/25 14:03:24;;;;;;;33.20;15.30;;;27.30;32.20;;;;;;6160956;23;20017;-84
2021/03/25 14:05:52;;;;;;;32.80;14.77;;;26.00;33.00;;;;;;6162705;23;20425;-86
2021/03/25 14:08:27;;;;;;;33.25;15.70;;;25.90;34.00;;;;;;6189214;23;20027;-85
2021/03/25 14:10:56;;;;;;;30.40;15.85;;;25.40;34.20;;;;;;6166407;23;20116;-86
2021/03/25 14:13:24;;;;;;;35.97;16.40;;;24.40;35.10;;;;;;6163492;23;20024;-86
2021/03/25 14:15:55;;;;;;;32.40;15.10;;;23.80;36.30;;;;;;6161954;23;20034;-88
2021/03/25 14:18:26;;;;;;;32.60;15.30;;;22.10;38.70;;;;;;6188216;23;20028;-87
2021/03/25 14:20:55;;;;;;;34.30;16.10;;;21.60;40.00;;;;;;6160857;23;20050;-86
2021/03/25 14:23:24;;;;;;;35.15;16.17;;;22.10;39.60;;;;;;6160896;23;20020;-85
2021/03/25 14:25:52;;;;;;;;;;;22.30;39.30;;;;;;6160703;23;20290;-84
2021/03/25 14:28:25;;;;;;;30.60;15.15;;;23.00;38.70;;;;;;6160373;23;20201;-86
2021/03/25 14:30:54;;;;;;;31.35;15.52;;;23.80;37.50;;;;;;6160671;23;20028;-84
2021/03/25 14:33:22;;;;;;;;;;;23.70;37.10;;;;;;6160590;23;20013;-84
2021/03/25 14:35:50;;;;;;;33.55;15.05;;;23.20;37.90;;;;;;6159590;23;19916;-83
2021/03/25 14:38:22;;;;;;;40.72;16.75;;;23.10;38.00;;;;;;6161039;23;20021;-83
2021/03/25 14:40:52;;;;;;;38.78;17.02;;;22.80;38.20;;;;;;6162156;23;20020;-84
2021/03/25 14:43:24;;;;;;;30.50;15.00;;;22.50;39.00;;;;;;6161344;23;20017;-84
2021/03/25 14:45:53;;;;;;;40.22;16.27;;;22.20;39.10;;;;;;6160661;23;20290;-85
2021/03/25 14:48:22;;;;;;;32.58;16.05;;;21.80;39.50;;;;;;6161624;23;20027;-85
2021/03/25 14:50:52;;;;;;;32.58;16.73;;;21.30;40.50;;;;;;6160624;23;20028;-85
2021/03/25 14:53:20;;;;;;;34.47;15.60;;;20.70;40.90;;;;;;6161015;23;20017;-85
2021/03/25 14:55:48;;;;;;;30.83;14.85;;;20.20;42.20;;;;;;6160345;23;20021;-85
2021/03/25 14:58:18;;;;;;;38.55;16.60;;;19.90;42.70;;;;;;6160281;23;20028;-85
2021/03/25 15:00:48;;;;;;;35.45;15.27;;;19.80;43.30;;;;;;6160734;23;20020;-86
2021/03/25 15:03:20;;;;;;;34.92;17.20;;;19.50;43.40;;;;;;6159884;23;20025;-85
2021/03/25 15:05:48;;;;;;;34.22;17.00;;;19.30;43.60;;;;;;6135455;23;20020;-86
2021/03/25 15:08:16;;;;;;;40.60;16.75;;;19.10;44.30;;;;;;6165612;23;20329;-86
2021/03/25 15:10:48;;;;;;;34.72;15.38;;;18.80;44.90;;;;;;6187467;23;20025;-84
2021/03/25 15:13:19;;;;;;;36.47;16.02;;;18.60;45.40;;;;;;6162192;23;20085;-85
2021/03/25 15:15:48;;;;;;;42.17;16.30;;;18.50;45.70;;;;;;6162399;23;20017;-85
2021/03/25 15:18:33;;;;;;;34.13;15.65;;;18.40;46.20;;;;;;6164207;23;20017;-86
2021/03/25 15:21:04;;;;;;;32.08;15.77;;;18.20;46.40;;;;;;6170861;23;20052;-86
2021/03/25 15:23:34;;;;;;;42.35;16.90;;;18.10;46.60;;;;;;6181719;23;20017;-85
2021/03/25 15:26:19;;;;;;;36.38;16.58;;;18.00;46.50;;;;;;6182184;23;20108;-86
2021/03/25 15:28:48;;;;;;;32.42;14.95;;;17.80;47.00;;;;;;6145666;23;20031;-86
2021/03/25 15:31:31;;;;;;;33.38;15.63;;;17.70;47.70;;;;;;6170231;23;20444;-86
2021/03/25 15:34:04;;;;;;;36.80;16.40;;;17.60;48.20;;;;;;6161105;23;20421;-86
2021/03/25 15:36:42;;;;;;;35.88;17.00;;;17.60;48.10;;;;;;6160728;23;20025;-88
2021/03/25 15:39:12;;;;;;;32.67;16.55;;;17.60;47.90;;;;;;6161823;23;20271;-90
2021/03/25 15:41:46;;;;;;;34.40;15.45;;;17.50;47.60;;;;;;6139717;23;20025;-90
2021/03/25 15:44:27;;;;;;;37.30;16.38;;;17.30;47.60;;;;;;6172368;23;20011;-92
2021/03/25 15:46:58;;;;;;;36.80;16.17;;;17.30;47.90;;;;;;6173452;23;20035;-96
2021/03/25 15:49:31;;;;;;;37.88;17.23;;;17.20;48.30;;;;;;6174386;23;20021;-96
2021/03/25 15:52:26;;;;;;;;;;;;;;;;;;;;;
2021/03/25 15:55:22;;;;;;;34.10;16.38;;;17.00;48.80;;;;;;6176416;23;20027;-95
2021/03/25 15:58:01;;;;;;;41.75;17.20;;;16.90;49.30;;;;;;6174310;23;20021;-95
2021/03/25 16:00:32;;;;;;;35.47;15.95;;;16.80;50.80;;;;;;6166477;23;20021;-89
2021/03/25 16:03:00;;;;;;;34.35;15.45;;;16.70;50.90;;;;;;6160931;23;20017;-86
2021/03/25 16:05:29;;;;;;;38.22;15.23;;;16.50;51.20;;;;;;6157939;23;20033;-86
2021/03/25 16:08:00;;;;;;;33.45;15.27;;;16.50;51.50;;;;;;6132921;23;20333;-86
2021/03/25 16:10:32;;;;;;;35.03;15.30;;;16.50;51.40;;;;;;6157767;23;20017;-87
2021/03/25 16:13:00;;;;;;;35.40;15.80;;;16.40;51.30;;;;;;6159618;23;20021;-87